ADDS METAR Data INFO
IDs: Format: Raw Decoded Include TAF

Data at: 2233 UTC 22 Aug 2017

K1P1 222215Z AUTO 00000KT 10SM CLR 29/20 A2970 RMK AO2 T02850195
K1P1 222155Z AUTO 18003KT 10SM CLR 29/20 A2971 RMK AO2 T02850197
K1P1 222135Z AUTO 00000KT 10SM SCT090 29/19 A2972 RMK AO2 T02900193
K1P1 222115Z AUTO 00000KT 10SM SCT060 SCT080 BKN090 29/20 A2973 RMK AO2 T02870195
K1P1 222055Z AUTO 20003KT 10SM SCT050 BKN070 BKN075 29/19 A2973 RMK AO2 T02930190
K1P1 222035Z AUTO 18004KT 10SM SCT055 BKN065 30/20 A2974 RMK AO2 T02990196
K1P1 222015Z AUTO 16004KT 10SM SCT049 SCT055 30/20 A2974 RMK AO2 T03020195
K1P1 221955Z AUTO 15003KT 10SM SCT055 SCT075 31/19 A2974 RMK AO2 T03050194
K1P1 221935Z AUTO 15003KT 10SM BKN055 OVC065 30/19 A2975 RMK AO2 T03010190
K1P1 221915Z AUTO 18005KT 10SM BKN055 BKN075 30/19 A2977 RMK AO2 T02950186
K1P1 221855Z AUTO 17004KT 10SM SCT055 BKN065 30/19 A2979 RMK AO2 T03040186
K1P1 221835Z AUTO 18003KT 10SM BKN050 BKN065 30/18 A2980 RMK AO2 T02960182
K1P1 221815Z AUTO 14003KT 10SM BKN050 29/20 A2982 RMK AO2 T02920195
K1P1 221755Z AUTO 00000KT 10SM OVC055 29/20 A2984 RMK AO2 T02870195 10290 20150
K1P1 221735Z AUTO 00000KT 10SM BKN055 BKN075 29/19 A2984 RMK AO2 T02860194
K1P1 221715Z AUTO 00000KT 10SM SCT044 SCT060 SCT075 29/20 A2986 RMK AO2 T02860196
K1P1 221655Z AUTO 22003KT 10SM CLR 29/20 A2987 RMK AO2 T02870195
K1P1 221635Z AUTO 00000KT 10SM CLR 28/19 A2987 RMK AO2 T02760194
K1P1 221615Z AUTO 00000KT 10SM CLR 28/20 A2989 RMK AO2 T02800197
K1P1 221555Z AUTO 00000KT 10SM CLR 27/19 A2990 RMK AO2 T02670193
K1P1 221535Z AUTO 07003KT 10SM CLR 26/19 A2991 RMK AO2 T02580189
K1P1 221515Z AUTO 07003KT 10SM CLR 25/19 A2992 RMK AO2 T02510191
K1P1 221455Z AUTO 00000KT 10SM CLR 24/19 A2994 RMK AO2 T02420187
K1P1 221435Z AUTO 00000KT 10SM CLR 23/18 A2994 RMK AO2 T02300181
K1P1 221415Z AUTO 00000KT 10SM CLR 21/19 A2996 RMK AO2 T02050193
K1P1 221355Z AUTO 00000KT 10SM CLR 19/18 A2996 RMK AO2 T01900184
K1P1 221335Z AUTO 00000KT 10SM SCT001 18/17 A2997 RMK AO2 T01780172
K1P1 221315Z AUTO 00000KT 5SM BR BKN001 17/17 A2998 RMK AO2 T01700165
K1P1 221255Z AUTO 00000KT 1SM BR OVC001 16/16 A3000 RMK AO2 T01610155
K1P1 221235Z AUTO 00000KT 1/4SM FG OVC001 16/15 A3000 RMK AO2 T01570151
K1P1 221215Z AUTO 00000KT 1/4SM FG OVC001 16/15 A3001 RMK AO2 T01550149
K1P1 221155Z AUTO 00000KT 1/4SM FG OVC001 15/15 A3001 RMK AO2 T01500145 10150 20131
K1P1 221135Z AUTO 00000KT M1/4SM FG OVC001 15/14 A3001 RMK AO2 T01500143
K1P1 221115Z AUTO 00000KT M1/4SM FG OVC001 15/14 A3001 RMK AO2 T01470141
K1P1 221055Z AUTO 00000KT M1/4SM FG OVC001 15/14 A3001 RMK AO2 T01480142
K1P1 221035Z AUTO 00000KT M1/4SM FG OVC001 15/14 A3001 RMK AO2 T01470141
K1P1 221015Z AUTO 00000KT M1/4SM FG OVC001 15/14 A3001 RMK AO2 T01460140
K1P1 220955Z AUTO 00000KT 1/4SM FG OVC001 15/14 A3001 RMK AO2 T01460140
K1P1 220935Z AUTO 00000KT 1/4SM FG OVC001 15/14 A3002 RMK AO2 T01460140
K1P1 220915Z AUTO 00000KT 1/4SM FG OVC001 15/14 A3002 RMK AO2 T01460140
K1P1 220855Z AUTO 00000KT 1/4SM FG OVC001 15/14 A3001 RMK AO2 T01470141
K1P1 220835Z AUTO 00000KT 1/4SM FG OVC001 15/14 A3001 RMK AO2 T01460140
K1P1 220815Z AUTO 00000KT 1/4SM FG OVC001 15/14 A3001 RMK AO2 T01450140
K1P1 220755Z AUTO 00000KT 1/2SM FG OVC001 15/14 A3002 RMK AO2 T01450138
K1P1 220735Z AUTO 00000KT 4SM BR OVC001 14/14 A3003 RMK AO2 T01410135
K1P1 220715Z AUTO 00000KT 3SM BR BKN001 14/13 A3003 RMK AO2 T01380132
K1P1 220655Z AUTO 00000KT 2 1/2SM BR SCT001 13/13 A3003 RMK AO2 T01310125
K1P1 220635Z AUTO 00000KT 1 1/4SM BR SCT004 14/13 A3004 RMK AO2 T01350128
K1P1 220615Z AUTO 00000KT 2 1/2SM BR SCT004 14/13 A3005 RMK AO2 T01380132
K1P1 220555Z AUTO 00000KT 2 1/2SM BR CLR 14/13 A3005 RMK AO2 T01400134 10205 20140
K1P1 220535Z AUTO 00000KT 2 1/2SM BR CLR 14/13 A3005 RMK AO2 T01400133
K1P1 220515Z AUTO 00000KT 1SM BR VV007 14/14 A3006 RMK AO2 T01420136
K1P1 220455Z AUTO 00000KT 2SM BR CLR 15/14 A3006 RMK AO2 T01460139
K1P1 220435Z AUTO 00000KT 5SM BR CLR 15/14 A3006 RMK AO2 T01510144
K1P1 220415Z AUTO 00000KT 1SM BR VV007 15/14 A3006 RMK AO2 T01500142
K1P1 220355Z AUTO 00000KT 3SM BR CLR 15/15 A3006 RMK AO2 T01540147 402850106
K1P1 220335Z AUTO 00000KT 3SM BR CLR 15/15 A3005 RMK AO2 T01540146
K1P1 220315Z AUTO 00000KT 2 1/2SM BR CLR 16/15 A3006 RMK AO2 T01550146
K1P1 220255Z AUTO 00000KT 3SM BR CLR 16/15 A3006 RMK AO2 T01590150
K1P1 220235Z AUTO 00000KT 4SM BR CLR 16/15 A3005 RMK AO2 T01630154
K1P1 220215Z AUTO 00000KT 5SM BR CLR 17/16 A3005 RMK AO2 T01670158
K1P1 220155Z AUTO 00000KT 3SM BR CLR 17/16 A3005 RMK AO2 T01710161
K1P1 220135Z AUTO 00000KT 7SM CLR 18/16 A3005 RMK AO2 T01750164
K1P1 220115Z AUTO 00000KT 7SM CLR 18/16 A3006 RMK AO2 T01760164
K1P1 220055Z AUTO 00000KT 10SM CLR 18/17 A3006 RMK AO2 T01810166
K1P1 220035Z AUTO 00000KT 10SM CLR 19/17 A3006 RMK AO2 T01860170
K1P1 220015Z AUTO 00000KT 10SM CLR 19/17 A3006 RMK AO2 T01940174
K1P1 212355Z AUTO 00000KT 10SM CLR 21/18 A3006 RMK AO2 T02050178 10282 20205
K1P1 212335Z AUTO 00000KT 10SM CLR 22/18 A3006 RMK AO2 T02170181
K1P1 212315Z AUTO 00000KT 10SM CLR 23/18 A3005 RMK AO2 T02320184
K1P1 212255Z AUTO 00000KT 10SM CLR 25/18 A3005 RMK AO2 T02460176
K1P1 212235Z AUTO 00000KT 10SM CLR 26/17 A3005 RMK AO2 T02560167
K1P1 212215Z AUTO 00000KT 10SM CLR 27/16 A3005 RMK AO2 T02680155
K1P1 212155Z AUTO 00000KT 10SM CLR 27/15 A3005 RMK AO2 T02740152
K1P1 212135Z AUTO 00000KT 10SM CLR 28/15 A3006 RMK AO2 T02760150
K1P1 212115Z AUTO 00000KT 10SM CLR 28/15 A3006 RMK AO2 T02790150
K1P1 212055Z AUTO 28005KT 10SM CLR 28/15 A3007 RMK AO2 T02800146
K1P1 212035Z AUTO 25005KT 10SM CLR 28/15 A3006 RMK AO2 T02800151
K1P1 212015Z AUTO 22003KT 10SM CLR 28/16 A3006 RMK AO2 T02820157
K1P1 211955Z AUTO 24003KT 10SM CLR 28/16 A3007 RMK AO2 T02790157
K1P1 211935Z AUTO 00000KT 10SM CLR 27/15 A3007 RMK AO2 T02740154
K1P1 211915Z AUTO 00000KT 10SM CLR 27/17 A3007 RMK AO2 T02680172
K1P1 211855Z AUTO 27003KT 10SM SCT050 27/16 A3007 RMK AO2 T02670159
K1P1 211835Z AUTO 00000KT 10SM BKN050 BKN065 27/15 A3008 RMK AO2 T02710153
K1P1 211815Z AUTO 27005KT 10SM SCT050 BKN065 28/16 A3008 RMK AO2 T02800155
K1P1 211755Z AUTO 28006KT 10SM SCT048 SCT055 SCT065 27/16 A3009 RMK AO2 T02740156 10285 20130
K1P1 211735Z AUTO 00000KT 10SM SCT046 SCT050 SCT065 29/16 A3009 RMK AO2 T02850163
K1P1 211715Z AUTO 29003KT 10SM SCT044 28/17 A3010 RMK AO2 T02790167
K1P1 211655Z AUTO 28005KT 10SM CLR 28/17 A3011 RMK AO2 T02750166
K1P1 211635Z AUTO 30004KT 10SM CLR 27/17 A3011 RMK AO2 T02700168
K1P1 211615Z AUTO 00000KT 10SM CLR 26/17 A3012 RMK AO2 T02600168
K1P1 211555Z AUTO 00000KT 10SM CLR 25/17 A3013 RMK AO2 T02540169
K1P1 211535Z AUTO 00000KT 10SM CLR 25/17 A3013 RMK AO2 T02490166
K1P1 211515Z AUTO 00000KT 10SM CLR 24/17 A3013 RMK AO2 T02420172
K1P1 211455Z AUTO 00000KT 10SM CLR 23/17 A3014 RMK AO2 T02280170
K1P1 211435Z AUTO 00000KT 10SM CLR 21/17 A3014 RMK AO2 T02110171
K1P1 211415Z AUTO 00000KT 10SM CLR 18/17 A3014 RMK AO2 T01820174
K1P1 211355Z AUTO 00000KT 10SM CLR 17/16 A3015 RMK AO2 T01690163
K1P1 211335Z AUTO 00000KT 10SM CLR 16/15 A3016 RMK AO2 T01580153
K1P1 211315Z AUTO 00000KT 7SM BKN002 15/14 A3016 RMK AO2 T01450140
K1P1 211255Z AUTO 00000KT 2 1/2SM BR OVC002 14/14 A3017 RMK AO2 VIS 1 1/2V4 T01410136
K1P1 211235Z AUTO 00000KT 1SM BR OVC002 13/13 A3017 RMK AO2 T01340129
K1P1 211215Z AUTO 00000KT 1/4SM FG OVC002 13/13 A3017 RMK AO2 T01330128
K1P1 211155Z AUTO 00000KT 1/4SM FG OVC002 13/13 A3017 RMK AO2 T01300125 10130 20106
K1P1 211135Z AUTO 00000KT 1/4SM FG OVC002 13/12 A3017 RMK AO2 T01280123
K1P1 211115Z AUTO 00000KT 1/4SM FG OVC002 13/12 A3017 RMK AO2 T01270122
K1P1 211055Z AUTO 00000KT 1/4SM FG OVC002 13/12 A3017 RMK AO2 T01250120
K1P1 211035Z AUTO 00000KT 1/4SM FG OVC002 13/12 A3017 RMK AO2 T01250120